Time;durP1;ratioP1;P1;durP2;ratioP2;P2;SDS_P1;SDS_P2;PMS_P1;PMS_P2;Temp;Humidity;BMP_temperature;BMP_pressure;BME280_temperature;BME280_humidity;BME280_pressure;Samples;Min_cycle;Max_cycle;Signal;HPM_P1;HPM_P2
2021/09/21 00:01:03;;;;;;;10.55;7.88;;;;;;;;;;5004913;28;20057;-45
2021/09/21 00:03:29;;;;;;;9.82;7.53;;;;;;;;;;5005353;28;20018;-45
2021/09/21 00:05:55;;;;;;;9.15;6.97;;;;;;;;;;5004349;28;20041;-44
2021/09/21 00:08:27;;;;;;;10.90;7.78;;;;;;;;;;4984988;28;20069;-43
2021/09/21 00:10:53;;;;;;;11.52;8.43;;;;;;;;;;4989517;28;20046;-45
2021/09/21 00:13:19;;;;;;;9.38;7.63;;;;;;;;;;5005866;28;20034;-44
2021/09/21 00:15:46;;;;;;;8.65;7.60;;;;;;;;;;5003536;28;20026;-44
2021/09/21 00:18:12;;;;;;;7.50;6.75;;;;;;;;;;5004934;28;20044;-45
2021/09/21 00:20:38;;;;;;;8.60;7.70;;;;;;;;;;5004372;28;20033;-45
2021/09/21 00:23:04;;;;;;;7.75;6.95;;;;;;;;;;4989749;28;20084;-45
2021/09/21 00:25:30;;;;;;;10.27;7.57;;;;;;;;;;5002847;28;20498;-43
2021/09/21 00:27:56;;;;;;;9.27;7.50;;;;;;;;;;5006031;28;20026;-44
2021/09/21 00:30:23;;;;;;;8.80;7.55;;;;;;;;;;5002273;28;20022;-45
2021/09/21 00:33:00;;;;;;;8.52;7.55;;;;;;;;;;4988070;28;20054;-44
2021/09/21 00:35:27;;;;;;;9.27;7.57;;;;;;;;;;5007900;28;20156;-44
2021/09/21 00:37:53;;;;;;;10.45;8.32;;;;;;;;;;4990592;28;20030;-44
2021/09/21 00:40:19;;;;;;;8.23;7.43;;;;;;;;;;5006582;28;20034;-45
2021/09/21 00:42:45;;;;;;;12.27;7.85;;;;;;;;;;5003103;28;20057;-45
2021/09/21 00:45:16;;;;;;;8.45;7.22;;;;;;;;;;5004604;28;20141;-45
2021/09/21 00:47:42;;;;;;;9.48;7.60;;;15.60;99.90;;;;;;5003083;28;20041;-44
2021/09/21 00:50:08;;;;;;;8.77;7.43;;;15.70;99.90;;;;;;5005581;28;20038;-45
2021/09/21 00:52:34;;;;;;;8.82;7.93;;;;;;;;;;4984257;28;20127;-44
2021/09/21 00:55:00;;;;;;;8.73;7.43;;;;;;;;;;5006429;28;20076;-44
2021/09/21 00:57:27;;;;;;;14.93;7.93;;;;;;;;;;5006188;28;20033;-45
2021/09/21 00:59:53;;;;;;;8.85;7.85;;;;;;;;;;5003003;28;20027;-43
2021/09/21 01:02:19;;;;;;;9.57;7.72;;;15.70;99.90;;;;;;5003020;28;20081;-45
2021/09/21 01:04:45;;;;;;;9.43;8.40;;;;;;;;;;5005677;28;20037;-44
2021/09/21 01:07:11;;;;;;;11.60;8.07;;;;;;;;;;5007102;28;20493;-45
2021/09/21 01:09:39;;;;;;;9.23;7.93;;;;;;;;;;5005377;28;20028;-43
2021/09/21 01:12:05;;;;;;;9.77;8.27;;;;;;;;;;5004116;28;20121;-45
2021/09/21 01:14:31;;;;;;;12.73;8.82;;;;;;;;;;5003707;28;20100;-45
2021/09/21 01:16:57;;;;;;;10.00;8.52;;;;;;;;;;5005208;28;20026;-45
2021/09/21 01:19:24;;;;;;;10.35;8.25;;;;;;;;;;4987832;28;20045;-45
2021/09/21 01:21:51;;;;;;;11.68;7.97;;;;;;;;;;5000235;28;20567;-43
2021/09/21 01:24:17;;;;;;;9.38;7.75;;;;;;;;;;5005273;28;20049;-45
2021/09/21 01:26:44;;;;;;;9.77;7.57;;;;;;;;;;5007056;28;20123;-44
2021/09/21 01:29:09;;;;;;;8.80;7.80;;;15.60;99.90;;;;;;5006649;28;20038;-43
2021/09/21 01:31:36;;;;;;;9.30;7.90;;;15.70;99.90;;;;;;5003358;28;20033;-44
2021/09/21 01:34:02;;;;;;;10.73;7.53;;;15.70;99.90;;;;;;4969182;28;20060;-45
2021/09/21 01:36:29;;;;;;;9.85;7.50;;;15.60;99.90;;;;;;4947090;28;20067;-43
2021/09/21 01:38:56;;;;;;;8.95;7.57;;;15.60;99.90;;;;;;4967407;28;20026;-45
2021/09/21 01:41:22;;;;;;;8.68;7.70;;;;;;;;;;4967196;28;20038;-44
2021/09/21 01:43:48;;;;;;;11.55;7.68;;;15.50;99.90;;;;;;4966347;28;20027;-43
2021/09/21 01:46:20;;;;;;;9.77;7.90;;;15.60;99.90;;;;;;4962507;28;20618;-46
2021/09/21 01:48:46;;;;;;;11.40;8.23;;;15.60;99.90;;;;;;4967818;28;20491;-45
2021/09/21 01:51:42;;;;;;;9.85;7.80;;;15.60;99.90;;;;;;4969178;28;20035;-45
2021/09/21 01:54:23;;;;;;;8.45;7.55;;;15.50;99.90;;;;;;4965999;28;20081;-44
2021/09/21 01:59:33;;;;;;;8.70;7.88;;;15.60;99.90;;;;;;4965604;28;20073;-44
2021/09/21 02:01:58;;;;;;;12.27;8.52;;;15.60;99.90;;;;;;4966864;28;20031;-44
2021/09/21 02:04:24;;;;;;;9.02;7.70;;;15.60;99.90;;;;;;4995595;28;20594;-43
2021/09/21 02:06:52;;;;;;;9.02;8.13;;;15.70;99.90;;;;;;4965214;28;20039;-44
2021/09/21 02:09:17;;;;;;;9.60;8.60;;;15.70;99.90;;;;;;4965373;28;20039;-44
2021/09/21 02:11:44;;;;;;;8.75;7.90;;;15.60;99.90;;;;;;4966809;28;20030;-44
2021/09/21 02:14:13;;;;;;;9.35;8.35;;;15.60;99.90;;;;;;4964048;28;20042;-44
2021/09/21 02:16:39;;;;;;;11.13;8.60;;;15.50;99.90;;;;;;4963562;28;20522;-44
2021/09/21 02:19:05;;;;;;;11.88;8.45;;;;;;;;;;4968885;28;20030;-43
2021/09/21 02:21:32;;;;;;;10.32;8.45;;;;;;;;;;4966967;28;20106;-43
2021/09/21 02:23:59;;;;;;;14.13;8.23;;;;;;;;;;4969859;28;20038;-44
2021/09/21 02:26:26;;;;;;;8.68;7.60;;;;;;;;;;4969259;28;20050;-44
2021/09/21 02:28:52;;;;;;;13.10;7.68;;;15.20;99.90;;;;;;4970039;28;20055;-44
2021/09/21 02:31:19;;;;;;;10.20;8.25;;;;;;;;;;4970057;28;20023;-44
2021/09/21 02:33:45;;;;;;;9.85;8.27;;;;;;;;;;4971019;28;20030;-45
2021/09/21 02:36:12;;;;;;;12.48;8.32;;;;;;;;;;4996968;28;20073;-44
2021/09/21 02:38:38;;;;;;;9.05;7.95;;;;;;;;;;5006164;28;20099;-44
2021/09/21 02:41:04;;;;;;;10.63;8.43;;;;;;;;;;5009690;28;20026;-44
2021/09/21 02:43:31;;;;;;;10.70;8.73;;;;;;;;;;5007708;28;20057;-45
2021/09/21 02:46:00;;;;;;;10.25;9.13;;;;;;;;;;5003226;28;20129;-45
2021/09/21 02:48:27;;;;;;;9.52;8.52;;;;;;;;;;4974183;28;20038;-45
2021/09/21 02:50:53;;;;;;;12.55;9.60;;;;;;;;;;5008797;28;20030;-45
2021/09/21 02:53:19;;;;;;;9.80;8.77;;;;;;;;;;5004875;28;20026;-44
2021/09/21 02:55:46;;;;;;;10.43;8.35;;;;;;;;;;5006402;28;20044;-44
2021/09/21 02:58:15;;;;;;;10.57;8.00;;;;;;;;;;4986528;28;20054;-45
2021/09/21 03:00:42;;;;;;;10.80;9.48;;;;;;;;;;5007776;28;20080;-45
2021/09/21 03:03:08;;;;;;;10.48;8.68;;;;;;;;;;5006573;28;20377;-45
2021/09/21 03:05:51;;;;;;;11.68;9.00;;;;;;;;;;5003903;28;20037;-44
2021/09/21 03:08:19;;;;;;;10.15;8.05;;;;;;;;;;5005889;28;20026;-43
2021/09/21 03:18:57;;;;;;;9.82;8.63;;;;;;;;;;5007882;28;20041;-46
2021/09/21 03:21:23;;;;;;;10.05;8.75;;;;;;;;;;5002685;28;20454;-45
2021/09/21 03:23:49;;;;;;;12.18;9.25;;;;;;;;;;5006600;28;20513;-45
2021/09/21 03:26:16;;;;;;;14.82;9.07;;;;;;;;;;5005744;28;20053;-45
2021/09/21 03:28:42;;;;;;;9.85;8.85;;;;;;;;;;5004853;28;20042;-43
2021/09/21 03:31:09;;;;;;;11.60;9.32;;;;;;;;;;5004455;28;20048;-44
2021/09/21 03:33:35;;;;;;;10.65;9.20;;;;;;;;;;5006279;28;20026;-44
2021/09/21 03:36:01;;;;;;;10.88;9.35;;;;;;;;;;5004135;28;20049;-44
2021/09/21 03:38:27;;;;;;;9.35;8.43;;;;;;;;;;5007944;28;20022;-43
2021/09/21 03:40:53;;;;;;;9.25;8.35;;;;;;;;;;5006193;28;20532;-45
2021/09/21 03:43:19;;;;;;;10.15;9.05;;;;;;;;;;5003387;28;20450;-43
2021/09/21 03:45:46;;;;;;;14.68;10.18;;;;;;;;;;5006068;28;20050;-46
2021/09/21 03:48:12;;;;;;;10.20;8.77;;;;;;;;;;5006633;28;20049;-45
2021/09/21 03:50:38;;;;;;;10.55;9.40;;;;;;;;;;5004387;28;20036;-46
2021/09/21 03:53:04;;;;;;;10.13;8.75;;;;;;;;;;4998478;28;20034;-46
2021/09/21 03:55:31;;;;;;;12.60;9.32;;;;;;;;;;5006860;28;20030;-45
2021/09/21 03:57:57;;;;;;;10.68;8.88;;;;;;;;;;5010906;28;20385;-45
2021/09/21 04:00:23;;;;;;;11.63;9.20;;;;;;;;;;5007671;28;20113;-44
2021/09/21 04:02:49;;;;;;;11.65;9.05;;;;;;;;;;5004303;28;20042;-46
2021/09/21 04:05:16;;;;;;;10.30;8.55;;;;;;;;;;5006280;28;20312;-46
2021/09/21 04:07:42;;;;;;;12.60;10.65;;;;;;;;;;5006957;28;20335;-45
2021/09/21 04:10:08;;;;;;;9.93;8.80;;;;;;;;;;5004580;28;20026;-45
2021/09/21 04:12:37;;;;;;;14.10;9.48;;;;;;;;;;5007679;28;20026;-45
2021/09/21 04:15:04;;;;;;;10.55;9.32;;;;;;;;;;5007284;28;20105;-46
2021/09/21 04:17:31;;;;;;;12.20;8.65;;;;;;;;;;4983624;28;20044;-46
2021/09/21 04:19:57;;;;;;;12.38;9.68;;;;;;;;;;5007063;28;20458;-45
2021/09/21 04:22:23;;;;;;;13.38;9.68;;;;;;;;;;5006937;28;20421;-46
2021/09/21 04:24:49;;;;;;;11.38;9.15;;;;;;;;;;5005164;28;20471;-46
2021/09/21 04:27:15;;;;;;;11.40;10.07;;;;;;;;;;5002722;28;20125;-45
2021/09/21 04:29:41;;;;;;;11.48;9.23;;;;;;;;;;5003293;28;20026;-46
2021/09/21 04:32:07;;;;;;;10.57;9.40;;;;;;;;;;5006739;28;20070;-45
2021/09/21 04:34:34;;;;;;;13.70;9.27;;;;;;;;;;4987335;28;20045;-43
2021/09/21 04:37:01;;;;;;;10.20;9.13;;;;;;;;;;5007237;28;20246;-47
2021/09/21 04:39:27;;;;;;;10.20;9.20;;;;;;;;;;5003404;28;20160;-45
2021/09/21 04:41:53;;;;;;;10.40;8.95;;;;;;;;;;4953558;28;20038;-46
2021/09/21 04:44:20;;;;;;;10.98;9.35;;;;;;;;;;5005821;28;20026;-46
2021/09/21 04:46:46;;;;;;;11.35;9.88;;;;;;;;;;4989305;28;20050;-45
2021/09/21 04:49:13;;;;;;;12.20;10.20;;;;;;;;;;5004815;28;20064;-47
2021/09/21 04:51:39;;;;;;;10.70;9.60;;;;;;;;;;5005476;28;20031;-46
2021/09/21 04:54:05;;;;;;;10.95;9.55;;;;;;;;;;5009762;28;20022;-46
2021/09/21 04:56:32;;;;;;;11.73;9.02;;;;;;;;;;5009076;28;20057;-46
2021/09/21 04:58:58;;;;;;;10.55;9.48;;;;;;;;;;5009830;28;20036;-46
2021/09/21 05:01:25;;;;;;;12.00;9.55;;;;;;;;;;5010930;28;20018;-45
2021/09/21 05:03:51;;;;;;;13.98;9.75;;;;;;;;;;5005643;28;20068;-46
2021/09/21 05:06:17;;;;;;;11.63;9.48;;;;;;;;;;5001085;28;20046;-46
2021/09/21 05:08:46;;;;;;;10.00;8.88;;;;;;;;;;4983454;28;20051;-46
2021/09/21 05:11:12;;;;;;;11.18;9.60;;;;;;;;;;5003756;28;20050;-43
2021/09/21 05:13:38;;;;;;;12.38;10.07;;;;;;;;;;4999667;28;20437;-44
2021/09/21 05:16:04;;;;;;;10.43;9.32;;;;;;;;;;5002182;28;20053;-45
2021/09/21 05:18:31;;;;;;;12.75;9.82;;;;;;;;;;4984121;28;20041;-42
2021/09/21 05:20:57;;;;;;;10.45;9.43;;;;;;;;;;4985725;28;20073;-48
2021/09/21 05:23:23;;;;;;;12.68;9.50;;;;;;;;;;5005861;28;20532;-48
2021/09/21 05:25:49;;;;;;;13.80;9.27;;;;;;;;;;5006236;28;20101;-47
2021/09/21 05:28:15;;;;;;;11.63;8.88;;;;;;;;;;5005995;28;20057;-49
2021/09/21 05:30:41;;;;;;;10.27;9.02;;;;;;;;;;5002706;28;20045;-49
2021/09/21 05:33:07;;;;;;;11.00;8.07;;;;;;;;;;5004200;28;20029;-49
2021/09/21 05:35:34;;;;;;;9.80;8.70;;;;;;;;;;5006384;28;20041;-48
2021/09/21 05:38:00;;;;;;;11.80;9.27;;;;;;;;;;5007406;28;20076;-47
2021/09/21 05:40:28;;;;;;;10.65;9.30;;;;;;;;;;5001536;28;20047;-48
2021/09/21 05:42:54;;;;;;;9.73;8.73;;;;;;;;;;5002891;28;20046;-48
2021/09/21 05:45:21;;;;;;;11.23;9.18;;;;;;;;;;5008567;28;20089;-49
2021/09/21 05:47:48;;;;;;;9.75;8.50;;;;;;;;;;5008998;28;20125;-47
2021/09/21 05:50:14;;;;;;;9.57;8.38;;;;;;;;;;5006283;28;20080;-49
2021/09/21 05:52:41;;;;;;;12.13;9.20;;;;;;;;;;5011942;28;20038;-49
2021/09/21 05:55:07;;;;;;;12.02;9.13;;;;;;;;;;5008794;28;20037;-47
2021/09/21 05:57:34;;;;;;;12.70;9.18;;;;;;;;;;5009416;28;20026;-48
2021/09/21 06:00:00;;;;;;;12.13;9.00;;;;;;;;;;5014301;28;20038;-48
2021/09/21 06:02:26;;;;;;;10.63;9.15;;;;;;;;;;5017298;28;20462;-48
2021/09/21 06:04:52;;;;;;;9.27;8.27;;;;;;;;;;5014107;28;20460;-48
2021/09/21 06:07:19;;;;;;;9.25;8.20;;;;;;;;;;4989828;28;20060;-49
2021/09/21 06:09:45;;;;;;;11.55;9.05;;;;;;;;;;5012222;28;20038;-48
2021/09/21 06:12:11;;;;;;;10.48;8.30;;;;;;;;;;5017056;28;20057;-48
2021/09/21 06:14:38;;;;;;;17.25;10.15;;;;;;;;;;5012329;28;20026;-48
2021/09/21 06:17:04;;;;;;;10.63;8.57;;;;;;;;;;5013555;28;20034;-47
2021/09/21 06:19:30;;;;;;;9.48;8.48;;;;;;;;;;5013782;28;20038;-48
2021/09/21 06:21:56;;;;;;;12.73;8.77;;;;;;;;;;5015185;28;20026;-49
2021/09/21 06:24:22;;;;;;;11.32;8.38;;;;;;;;;;5013963;28;20033;-48
2021/09/21 06:26:49;;;;;;;9.88;8.80;;;;;;;;;;5013051;28;20501;-47
2021/09/21 06:29:15;;;;;;;9.07;7.38;;;;;;;;;;5014403;28;20065;-48
2021/09/21 06:31:42;;;;;;;10.93;8.68;;;14.90;99.90;;;;;;5012187;28;20113;-48
2021/09/21 06:34:08;;;;;;;11.07;9.10;;;15.10;99.90;;;;;;5014580;28;20030;-50
2021/09/21 06:36:34;;;;;;;12.10;9.07;;;15.10;99.90;;;;;;4960467;28;20084;-49
2021/09/21 06:39:00;;;;;;;10.18;8.52;;;15.10;99.90;;;;;;4990068;28;20038;-48
2021/09/21 06:41:25;;;;;;;10.45;8.70;;;15.00;99.90;;;;;;5014648;28;20029;-48
2021/09/21 06:43:51;;;;;;;13.30;8.48;;;15.10;99.90;;;;;;5013973;28;20033;-48
2021/09/21 06:46:18;;;;;;;11.23;8.93;;;15.10;99.90;;;;;;5014606;28;20038;-49
2021/09/21 06:48:43;;;;;;;14.43;9.43;;;15.10;99.90;;;;;;5014568;28;20033;-47
2021/09/21 06:51:10;;;;;;;14.52;8.75;;;15.00;99.90;;;;;;5013490;28;20033;-48
2021/09/21 06:53:36;;;;;;;10.13;7.88;;;15.10;99.90;;;;;;5011292;28;20034;-48
2021/09/21 06:56:02;;;;;;;12.48;8.20;;;15.20;99.90;;;;;;5011503;28;20040;-48
2021/09/21 06:58:29;;;;;;;13.73;9.07;;;15.10;99.90;;;;;;4994535;28;20049;-48
2021/09/21 07:00:54;;;;;;;10.90;9.05;;;15.20;99.90;;;;;;4988632;28;20042;-48
2021/09/21 07:03:20;;;;;;;10.38;8.07;;;15.20;99.90;;;;;;4988919;28;20039;-49
2021/09/21 07:05:46;;;;;;;10.77;8.30;;;15.10;99.90;;;;;;4960520;28;20050;-47
2021/09/21 07:08:12;;;;;;;10.43;8.18;;;15.30;99.90;;;;;;4967570;28;20473;-48
2021/09/21 07:10:38;;;;;;;10.73;9.00;;;15.30;99.90;;;;;;4990491;28;20034;-48
2021/09/21 07:13:04;;;;;;;11.50;8.95;;;15.40;99.90;;;;;;4988478;28;20418;-48
2021/09/21 07:15:30;;;;;;;11.75;8.95;;;15.40;99.90;;;;;;4984674;28;20023;-49
2021/09/21 07:17:56;;;;;;;12.77;9.45;;;15.40;99.90;;;;;;4988884;28;20042;-48
2021/09/21 07:20:24;;;;;;;9.85;8.73;;;15.40;99.90;;;;;;4960534;28;20047;-48
2021/09/21 07:22:50;;;;;;;11.85;9.68;;;15.40;99.90;;;;;;4984616;28;20035;-48
2021/09/21 07:25:18;;;;;;;11.63;9.98;;;;;;;;;;4993700;28;20081;-48
2021/09/21 07:27:45;;;;;;;10.48;8.23;;;;;;;;;;4990474;28;20048;-48
2021/09/21 07:30:11;;;;;;;11.30;9.50;;;;;;;;;;4985383;28;20514;-47
2021/09/21 07:32:37;;;;;;;11.50;9.15;;;;;;;;;;4993292;28;20038;-48
2021/09/21 07:35:04;;;;;;;10.27;9.13;;;;;;;;;;4993099;28;20125;-47
2021/09/21 07:37:30;;;;;;;11.13;9.38;;;;;;;;;;4974968;28;20053;-49
2021/09/21 07:39:56;;;;;;;10.52;8.75;;;;;;;;;;4992623;28;20089;-47
2021/09/21 07:42:23;;;;;;;9.82;8.40;;;;;;;;;;4992975;28;20038;-48
2021/09/21 07:44:49;;;;;;;10.52;8.07;;;;;;;;;;4993113;28;20050;-47
2021/09/21 07:47:15;;;;;;;9.80;8.40;;;;;;;;;;4965334;28;20137;-48
2021/09/21 07:49:42;;;;;;;10.07;7.90;;;;;;;;;;4992519;28;20046;-48
2021/09/21 07:52:08;;;;;;;9.07;7.97;;;;;;;;;;4992917;28;20475;-47
2021/09/21 07:54:34;;;;;;;12.35;8.82;;;;;;;;;;4992767;28;20035;-49
2021/09/21 07:57:02;;;;;;;9.27;7.72;;;;;;;;;;4993438;28;20065;-49
2021/09/21 07:59:28;;;;;;;11.07;8.18;;;;;;;;;;4992611;28;20096;-48
2021/09/21 08:01:54;;;;;;;9.10;7.53;;;;;;;;;;5003559;28;20144;-48
2021/09/21 08:04:20;;;;;;;9.10;7.72;;;;;;;;;;5013143;28;20029;-49
2021/09/21 08:06:46;;;;;;;10.30;8.98;;;;;;;;;;5009116;28;20490;-49
2021/09/21 08:09:12;;;;;;;10.40;8.80;;;;;;;;;;5012816;28;20061;-48
2021/09/21 08:11:39;;;;;;;10.25;7.63;;;;;;;;;;5009162;28;20058;-47
2021/09/21 08:14:05;;;;;;;9.48;7.53;;;;;;;;;;4999451;28;20037;-47
2021/09/21 08:16:33;;;;;;;8.90;7.03;;;;;;;;;;5011908;28;20044;-49
2021/09/21 08:19:00;;;;;;;7.28;6.28;;;;;;;;;;5011964;28;20042;-48
2021/09/21 08:21:26;;;;;;;10.85;7.38;;;;;;;;;;5010261;28;20454;-48
2021/09/21 08:23:55;;;;;;;10.23;7.72;;;;;;;;;;5010790;28;20358;-48
2021/09/21 08:26:21;;;;;;;8.40;7.13;;;;;;;;;;4995358;28;20080;-48
2021/09/21 08:28:48;;;;;;;8.10;6.40;;;;;;;;;;5007829;28;20033;-48
2021/09/21 08:31:14;;;;;;;10.10;6.13;;;;;;;;;;4993341;28;20070;-47
2021/09/21 08:33:40;;;;;;;8.43;6.72;;;;;;;;;;5004946;28;20038;-48
2021/09/21 08:36:06;;;;;;;8.73;6.53;;;;;;;;;;5003464;28;20077;-49
2021/09/21 08:38:32;;;;;;;8.77;7.20;;;;;;;;;;5008966;28;20092;-48
2021/09/21 08:40:59;;;;;;;10.85;7.22;;;;;;;;;;5008141;28;20034;-48
2021/09/21 08:43:25;;;;;;;9.70;7.25;;;;;;;;;;4992665;28;20087;-48
2021/09/21 08:45:51;;;;;;;6.93;5.88;;;;;;;;;;5009070;28;20091;-49
2021/09/21 08:48:17;;;;;;;7.85;6.43;;;;;;;;;;4961606;28;20413;-48
2021/09/21 08:50:43;;;;;;;8.20;6.63;;;;;;;;;;5009474;28;20040;-48
2021/09/21 08:53:10;;;;;;;7.82;6.72;;;;;;;;;;5006483;28;20370;-48
2021/09/21 08:55:36;;;;;;;7.93;6.05;;;;;;;;;;5000899;28;20106;-48
2021/09/21 08:58:02;;;;;;;8.07;6.80;;;;;;;;;;5006636;28;20030;-48
2021/09/21 09:00:34;;;;;;;9.07;6.75;;;;;;;;;;5011986;28;20124;-48
2021/09/21 09:03:07;;;;;;;7.57;6.80;;;;;;;;;;5006706;28;20444;-48
2021/09/21 09:06:03;;;;;;;8.85;7.00;;;;;;;;;;5000074;28;20041;-48
2021/09/21 09:08:36;;;;;;;8.63;6.45;;;;;;;;;;4974145;28;20467;-49
2021/09/21 09:11:11;;;;;;;8.52;6.40;;;;;;;;;;4973060;28;20125;-47
2021/09/21 09:13:37;;;;;;;9.95;6.38;;;;;;;;;;4973651;28;20143;-50
2021/09/21 09:16:06;;;;;;;6.88;6.13;;;;;;;;;;4940414;28;20541;-48
2021/09/21 09:18:32;;;;;;;8.98;7.05;;;;;;;;;;4957317;28;20035;-49
2021/09/21 09:20:59;;;;;;;7.88;6.65;;;;;;;;;;4959389;28;20094;-48
2021/09/21 09:23:25;;;;;;;9.60;6.25;;;;;;;;;;4967144;28;20051;-49
2021/09/21 09:25:52;;;;;;;8.40;6.78;;;;;;;;;;4985267;28;20055;-48
2021/09/21 09:28:19;;;;;;;8.88;6.82;;;;;;;;;;4969636;28;20140;-48
2021/09/21 09:30:45;;;;;;;9.25;7.07;;;;;;;;;;4936578;28;20065;-49
2021/09/21 09:33:13;;;;;;;7.25;6.55;;;;;;;;;;4969332;28;20470;-47
2021/09/21 09:35:43;;;;;;;8.13;5.88;;;;;;;;;;4970776;28;20039;-48
2021/09/21 09:38:10;;;;;;;8.85;6.60;;;;;;;;;;4953534;28;20483;-48
2021/09/21 09:40:56;;;;;;;10.38;6.75;;;;;;;;;;4968994;28;20043;-47
2021/09/21 09:43:23;;;;;;;8.88;6.88;;;;;;;;;;4972535;28;20035;-48
2021/09/21 09:45:51;;;;;;;7.88;6.15;;;;;;;;;;4995707;28;20073;-47
2021/09/21 09:48:18;;;;;;;7.13;6.22;;;;;;;;;;5007069;28;20073;-47
2021/09/21 09:50:45;;;;;;;7.45;6.53;;;;;;;;;;5008160;28;20368;-47
2021/09/21 09:53:25;;;;;;;8.50;7.05;;;;;;;;;;5021127;28;20109;-48
2021/09/21 09:55:53;;;;;;;8.95;6.50;;;;;;;;;;5012212;28;20045;-48
2021/09/21 09:58:19;;;;;;;10.25;6.40;;;;;;;;;;5011724;28;20432;-48
2021/09/21 10:00:46;;;;;;;8.10;6.32;;;;;;;;;;5000256;28;20044;-47
2021/09/21 10:03:12;;;;;;;8.38;6.90;;;;;;;;;;4998558;28;20093;-48
2021/09/21 10:05:40;;;;;;;9.13;7.00;;;;;;;;;;5005033;28;20504;-47
2021/09/21 10:08:06;;;;;;;7.97;7.18;;;;;;;;;;5017840;28;20084;-47
2021/09/21 10:10:38;;;;;;;10.57;6.60;;;;;;;;;;4988887;28;20037;-48
2021/09/21 10:13:06;;;;;;;9.10;6.43;;;;;;;;;;5003281;28;20038;-49
2021/09/21 10:15:33;;;;;;;8.80;6.60;;;;;;;;;;4974456;28;20132;-49
2021/09/21 10:17:59;;;;;;;7.13;5.53;;;;;;;;;;5019464;28;20026;-49
2021/09/21 10:20:40;;;;;;;7.88;6.22;;;;;;;;;;5011464;28;20041;-53
2021/09/21 10:23:07;;;;;;;7.10;5.93;;;;;;;;;;5001858;28;20449;-49
2021/09/21 10:25:34;;;;;;;7.40;6.07;;;;;;;;;;4990534;28;20065;-50
2021/09/21 10:28:01;;;;;;;6.85;6.15;;;;;;;;;;5000020;28;20038;-48
2021/09/21 10:30:31;;;;;;;7.95;6.25;;;;;;;;;;4986315;28;20371;-53
2021/09/21 10:32:58;;;;;;;7.68;5.95;;;;;;;;;;5001301;28;20041;-49
2021/09/21 10:35:31;;;;;;;7.65;5.63;;;;;;;;;;5001807;28;20085;-48
2021/09/21 10:38:02;;;;;;;8.23;6.40;;;;;;;;;;4952812;28;20043;-49
2021/09/21 10:40:39;;;;;;;7.20;6.50;;;;;;;;;;5011876;28;20494;-47
2021/09/21 10:43:24;;;;;;;8.85;7.32;;;;;;;;;;5014983;28;20042;-49
2021/09/21 10:45:51;;;;;;;6.65;5.88;;;19.30;99.90;;;;;;5005748;28;20038;-50
2021/09/21 10:48:21;;;;;;;7.47;5.85;;;;;;;;;;5015039;28;20029;-45
2021/09/21 10:50:57;;;;;;;8.85;6.60;;;;;;;;;;5011940;28;20026;-46
2021/09/21 10:53:25;;;;;;;6.45;5.45;;;;;;;;;;5009764;28;20042;-53
2021/09/21 10:56:01;;;;;;;8.30;6.07;;;;;;;;;;5006683;28;20541;-53
2021/09/21 10:58:27;;;;;;;21.75;18.98;;;;;;;;;;5002410;28;20496;-50
2021/09/21 11:00:54;;;;;;;7.25;6.55;;;;;;;;;;5000025;28;20038;-51
2021/09/21 11:03:20;;;;;;;5.70;5.10;;;;;;;;;;4994905;28;20113;-49
2021/09/21 11:05:46;;;;;;;6.50;5.90;;;;;;;;;;5001287;28;20046;-49
2021/09/21 11:08:13;;;;;;;13.00;9.90;;;;;;;;;;5014701;28;20080;-48
2021/09/21 11:10:44;;;;;;;6.80;6.03;;;;;;;;;;5008659;28;20042;-50
2021/09/21 11:13:16;;;;;;;8.18;5.80;;;21.60;99.90;;;;;;5017372;28;20029;-49
2021/09/21 11:15:43;;;;;;;6.93;6.07;;;;;;;;;;5015559;28;20068;-48
2021/09/21 11:18:18;;;;;;;12.35;10.75;;;22.20;99.30;;;;;;5008644;28;20062;-49
2021/09/21 11:20:49;;;;;;;10.23;6.32;;;22.00;97.50;;;;;;5012245;28;20466;-48
2021/09/21 11:23:18;;;;;;;7.00;6.05;;;22.20;97.20;;;;;;4954641;28;20153;-48
2021/09/21 11:25:45;;;;;;;8.10;5.82;;;22.70;98.10;;;;;;4987169;28;20031;-47
2021/09/21 11:28:14;;;;;;;6.47;4.97;;;23.20;99.90;;;;;;4955866;28;20040;-47
2021/09/21 11:30:40;;;;;;;5.15;4.50;;;;;;;;;;4991589;28;20054;-49
2021/09/21 11:33:20;;;;;;;5.32;4.82;;;23.50;99.90;;;;;;4984212;28;20049;-50
2021/09/21 11:35:50;;;;;;;30.80;25.80;;;24.00;99.90;;;;;;4936978;28;20047;-50
2021/09/21 11:38:18;;;;;;;7.95;6.57;;;24.00;99.90;;;;;;4987054;28;20046;-48
2021/09/21 11:40:45;;;;;;;6.45;5.55;;;24.10;85.90;;;;;;4987427;28;20040;-48
2021/09/21 11:43:12;;;;;;;7.78;5.10;;;24.20;85.50;;;;;;4984810;28;20042;-48
2021/09/21 11:45:40;;;;;;;6.93;4.90;;;24.00;84.40;;;;;;4973177;28;20043;-46
2021/09/21 11:48:08;;;;;;;6.57;4.55;;;23.70;84.10;;;;;;4924984;28;20566;-46
2021/09/21 11:50:35;;;;;;;5.82;4.13;;;22.80;84.10;;;;;;4985165;28;20387;-49
2021/09/21 11:53:04;;;;;;;4.68;3.83;;;22.20;85.30;;;;;;4992198;28;20069;-49
2021/09/21 11:55:33;;;;;;;4.25;3.45;;;21.70;81.40;;;;;;5007851;28;20027;-49
2021/09/21 11:58:00;;;;;;;3.75;2.92;;;;;;;;;;5015394;28;20065;-48
2021/09/21 12:00:30;;;;;;;5.03;2.75;;;20.50;95.30;;;;;;5022413;28;20042;-48
2021/09/21 12:02:58;;;;;;;4.60;2.88;;;;;;;;;;5012811;28;20428;-48
2021/09/21 12:05:24;;;;;;;3.78;2.65;;;;;;;;;;5019509;28;20125;-49
2021/09/21 12:07:51;;;;;;;3.03;2.72;;;;;;;;;;5010167;28;20049;-47
2021/09/21 12:10:19;;;;;;;3.08;2.40;;;;;;;;;;5005725;28;20125;-48
2021/09/21 12:12:45;;;;;;;13.15;3.45;;;;;;;;;;5022015;28;20029;-47
2021/09/21 12:15:12;;;;;;;3.17;2.20;;;;;;;;;;5015577;28;20053;-48
2021/09/21 12:17:42;;;;;;;3.53;2.85;;;;;;;;;;5012362;28;20100;-48
2021/09/21 12:20:09;;;;;;;3.95;2.47;;;;;;;;;;5019798;28;20038;-47
2021/09/21 12:22:35;;;;;;;4.10;2.72;;;;;;;;;;4960438;28;20034;-46
2021/09/21 12:25:12;;;;;;;7.13;2.88;;;;;;;;;;5014711;28;20045;-48
2021/09/21 12:27:38;;;;;;;5.30;2.58;;;;;;;;;;5010895;28;20088;-48
2021/09/21 12:30:05;;;;;;;3.20;2.58;;;;;;;;;;5001921;28;20061;-47
2021/09/21 12:32:31;;;;;;;4.22;2.40;;;;;;;;;;5012652;28;20030;-48
2021/09/21 12:35:07;;;;;;;4.50;2.38;;;;;;;;;;4986346;28;20120;-49
2021/09/21 12:37:43;;;;;;;3.42;2.47;;;;;;;;;;4976648;28;20101;-48
2021/09/21 12:40:09;;;;;;;3.33;2.40;;;;;;;;;;4971196;28;20037;-47
2021/09/21 12:42:35;;;;;;;3.20;2.35;;;;;;;;;;4969736;28;20039;-48
2021/09/21 12:45:02;;;;;;;3.08;2.42;;;;;;;;;;4978102;28;20035;-48
2021/09/21 12:47:28;;;;;;;4.00;2.15;;;;;;;;;;4969885;28;20047;-47
2021/09/21 12:49:55;;;;;;;4.68;2.35;;;;;;;;;;4971739;28;20129;-48
2021/09/21 12:52:31;;;;;;;2.28;1.88;;;;;;;;;;4969160;28;20078;-49
2021/09/21 12:54:58;;;;;;;3.28;2.08;;;;;;;;;;4967806;28;20030;-49
2021/09/21 12:57:24;;;;;;;2.00;1.73;;;;;;;;;;4974564;28;20043;-50
2021/09/21 12:59:53;;;;;;;2.90;2.35;;;;;;;;;;4964333;28;20580;-50
2021/09/21 13:02:21;;;;;;;3.20;2.25;;;;;;;;;;4968695;28;20154;-50
2021/09/21 13:04:47;;;;;;;4.57;2.75;;;;;;;;;;4939874;28;20133;-50
2021/09/21 13:07:13;;;;;;;4.88;2.63;;;;;;;;;;4975401;28;20045;-49
2021/09/21 13:09:39;;;;;;;3.38;2.95;;;;;;;;;;5005816;28;20118;-49
2021/09/21 13:12:06;;;;;;;3.72;2.30;;;;;;;;;;5002541;28;20117;-48
2021/09/21 13:14:32;;;;;;;5.07;2.75;;;;;;;;;;5014029;28;20104;-47
2021/09/21 13:16:59;;;;;;;4.63;2.60;;;;;;;;;;4988383;28;20096;-47
2021/09/21 13:19:25;;;;;;;6.70;2.83;;;;;;;;;;5002827;28;20470;-48
2021/09/21 13:21:51;;;;;;;5.47;3.05;;;;;;;;;;4998974;28;20045;-47
2021/09/21 13:24:17;;;;;;;4.47;2.47;;;;;;;;;;5000309;28;20022;-47
2021/09/21 13:26:43;;;;;;;2.50;2.20;;;;;;;;;;4994866;28;20053;-48
2021/09/21 13:29:09;;;;;;;2.60;2.10;;;;;;;;;;5013369;28;20025;-49
2021/09/21 13:31:35;;;;;;;2.88;2.05;;;;;;;;;;5014827;28;20033;-48
2021/09/21 13:34:02;;;;;;;2.78;2.03;;;;;;;;;;5025291;28;20083;-47
2021/09/21 13:36:29;;;;;;;3.78;2.10;;;;;;;;;;5011680;28;20064;-48
2021/09/21 13:38:57;;;;;;;3.25;2.30;;;;;;;;;;5018411;28;20401;-47
2021/09/21 13:41:24;;;;;;;2.53;1.90;;;;;;;;;;5010692;28;20046;-49
2021/09/21 13:43:50;;;;;;;2.83;2.00;;;;;;;;;;5007176;28;20030;-48
2021/09/21 13:46:16;;;;;;;3.67;2.10;;;;;;;;;;4989477;28;20108;-47
2021/09/21 13:48:42;;;;;;;3.00;1.90;;;;;;;;;;4990745;28;20041;-47
2021/09/21 13:51:08;;;;;;;3.65;2.03;;;;;;;;;;5005826;28;20018;-47
2021/09/21 13:53:36;;;;;;;2.78;2.10;;;;;;;;;;5008992;28;20030;-47
2021/09/21 13:56:03;;;;;;;3.25;1.98;;;;;;;;;;5006997;28;20117;-47
2021/09/21 13:58:29;;;;;;;2.67;1.60;;;;;;;;;;5009869;28;20061;-47
2021/09/21 14:00:55;;;;;;;3.05;1.95;;;;;;;;;;5002224;28;20551;-47
2021/09/21 14:03:21;;;;;;;3.33;2.10;;;;;;;;;;5010531;28;20096;-47
2021/09/21 14:05:47;;;;;;;3.22;2.03;;;;;;;;;;5008627;28;20038;-48
2021/09/21 14:08:13;;;;;;;2.83;1.95;;;;;;;;;;5007816;28;20022;-49
2021/09/21 14:10:39;;;;;;;4.40;1.95;;;;;;;;;;4988131;28;20034;-49
2021/09/21 14:13:06;;;;;;;2.13;1.80;;;;;;;;;;5006818;28;20029;-50
2021/09/21 14:15:33;;;;;;;4.35;1.77;;;;;;;;;;5007768;28;20022;-48
2021/09/21 14:17:59;;;;;;;2.67;2.00;;;;;;;;;;5010056;28;20038;-48
2021/09/21 14:20:26;;;;;;;2.45;2.05;;;;;;;;;;5010865;28;20446;-50
2021/09/21 14:22:52;;;;;;;3.45;1.88;;;;;;;;;;5009464;28;20080;-49
2021/09/21 14:25:19;;;;;;;3.60;2.47;;;;;;;;;;5009945;28;20393;-49